Flight Track Log - Related Links

Times and Time Zones

All times are in EDT time to prevent confusion due to time zone crossing. See the AMX401 flight status page for this flight to view local times or setup timezone preferences in your user account.

Time Position Orientation Groundspeed Altitude Reporting Facility
EDT Latitude Longitude Course Direction KTS MPH feet Rate Location/Type
Thu 12:42:00 AM 40.5475 -73.9025 217° Southwest  Level FlightAware Approximate
Thu 12:43:00 AM 40.4875 -74.0125 217° Southwest  Level FlightAware Approximate
Thu 12:44:00 AM 40.4086 -74.1342 230° Southwest  Level FlightAware Approximate
Thu 12:44:57 AM 40.4302 -74.0439 225° Southwest 324 373 10,900  Level FlightAware ADS-B (KPHL)
Thu 12:45:10 AM 40.4054 -74.0783 236° Southwest 333 383 11,100 1,200 Climbing FlightAware ADS-B (KPHL)
Thu 12:45:42 AM 40.3783 -74.1353 238° Southwest 358 412 11,800 2,211 Climbing FlightAware ADS-B (KPHL)
Thu 12:46:26 AM 40.3404 -74.2133 237° Southwest 362 417 13,900 2,757 Climbing FlightAware ADS-B (KPHL)
Thu 12:46:56 AM 40.3142 -74.2670 238° Southwest 367 422 15,200 2,595 Climbing FlightAware ADS-B (KPHL)
Thu 12:47:40 AM 40.2688 -74.3565 234° Southwest 375 432 17,100 2,514 Climbing FlightAware ADS-B (KPHL)
Thu 12:48:10 AM 40.2389 -74.4098 234° Southwest 380 437 18,300 2,164 Climbing FlightAware ADS-B (KPHL)
Thu 12:48:41 AM 40.2057 -74.4686 234° Southwest 383 441 19,300 2,066 Climbing FlightAware ADS-B (KPHL)
Thu 12:49:11 AM 40.1768 -74.5200 234° Southwest 387 445 20,400 1,500 Climbing FlightAware ADS-B (KPHL)
Thu 12:49:41 AM 40.1415 -74.5830 235° Southwest 399 459 20,800 2,053 Climbing FlightAware ADS-B (KPHL)
Thu 12:50:27 AM 40.0937 -74.6664 234° Southwest 377 434 23,000 2,368 Climbing FlightAware ADS-B (KPHL)
Thu 12:50:57 AM 40.0621 -74.7236 234° Southwest 383 441 23,800 1,297 Climbing FlightAware ADS-B (KPHL)
Thu 12:51:41 AM 40.0164 -74.8047 234° Southwest 399 459 24,600 1,216 Climbing FlightAware ADS-B (KPHL)
Thu 12:52:11 AM 39.9864 -74.8574 233° Southwest 407 468 25,300 1,200 Climbing FlightAware ADS-B (KPHL)
Thu 12:52:41 AM 39.9487 -74.9233 233° Southwest 415 478 25,800 1,161 Climbing FlightAware ADS-B (KPHL)
Thu 12:53:13 AM 39.9106 -74.9900 233° Southwest 419 482 26,500 1,325 Climbing FlightAware ADS-B (KPHL)
Thu 12:53:58 AM 39.8590 -75.0801 233° Southwest 422 486 27,500 1,280 Climbing FlightAware ADS-B (KPHL)
Thu 12:54:28 AM 39.8261 -75.1377 233° Southwest 425 489 28,100 1,200 Climbing FlightAware ADS-B (KPHL)
Thu 12:55:13 AM 39.7716 -75.2326 233° Southwest 427 491 29,000 1,200 Climbing FlightAware ADS-B (KPHL)
Thu 12:55:43 AM 39.7357 -75.2951 233° Southwest 431 496 29,600 1,233 Climbing FlightAware ADS-B (KPHL)
Thu 12:56:26 AM 39.6859 -75.3813 233° Southwest 429 494 30,500 1,360 Climbing FlightAware ADS-B (KPHL)
Thu 12:56:58 AM 39.6460 -75.4500 233° Southwest 426 490 31,300 1,055 Climbing FlightAware ADS-B (KPHL)
Thu 12:57:57 AM 39.5755 -75.5717 233° Southwest 432 497 32,100 750 Climbing FlightAware ADS-B (KPHL)
Thu 12:58:42 AM 39.5435 -75.6267 233° Southwest 441 507 32,600 788 Climbing FlightAware ADS-B (KPHL)
Thu 12:59:36 AM 39.4592 -75.7713 233° Southwest 445 512 33,400 866 Climbing FlightAware ADS-B (LFML / MRS)
Thu 01:00:19 AM 39.4012 -75.8700 233° Southwest 440 506 34,000 429 Climbing FlightAware ADS-B (LFML / MRS)
Thu 01:01:00 AM 39.3509 -75.9554 233° Southwest 438 504 34,000  Level FlightAware ADS-B (LFML / MRS)
Thu 01:01:32 AM 39.3174 -76.0126 233° Southwest 436 502 34,000  Level FlightAware ADS-B
Thu 01:02:20 AM 39.2536 -76.1207 233° Southwest 436 502 34,000  Level FlightAware ADS-B (LFML / MRS)
Thu 01:02:53 AM 39.2132 -76.1890 233° Southwest 435 501 34,000  Level FlightAware ADS-B
Thu 01:03:33 AM 39.1650 -76.2706 233° Southwest 432 497 34,000  Level FlightAware ADS-B
Thu 01:04:13 AM 39.1167 -76.3517 233° Southwest 429 494 34,000  Level FlightAware ADS-B
Thu 01:04:53 AM 39.0694 -76.4312 233° Southwest 428 493 34,000  Level FlightAware ADS-B
Thu 01:05:33 AM 39.0206 -76.5130 233° Southwest 428 493 34,000  Level FlightAware ADS-B
Thu 01:06:03 AM 38.9873 -76.5687 232° Southwest 428 493 34,000  Level FlightAware ADS-B
Thu 01:06:31 AM 38.9562 -76.6204 233° Southwest 427 491 34,000  Level FlightAware ADS-B (KDAA)
Thu 01:06:33 AM 38.9479 -76.6343 232° Southwest 428 493 34,000  Level FlightAware ADS-B
Thu 01:06:50 AM 38.9274 -76.6682 233° Southwest 428 493 34,000  Level FlightAware ADS-B (KDAA)
Thu 01:07:21 AM 38.9135 -76.6913 232° Southwest 428 493 34,000  Level FlightAware ADS-B
Thu 01:07:26 AM 38.8862 -76.7366 233° Southwest 428 493 34,000  Level FlightAware ADS-B (KDAA)
Thu 01:07:56 AM 38.8477 -76.8005 233° Southwest 428 493 34,000  Level FlightAware ADS-B (KDAA)
Thu 01:08:01 AM 38.9135 -76.6913 232° Southwest 428 493 34,000  Level FlightAware ADS-B
Thu 01:08:31 AM 38.8051 -76.8708 233° Southwest 427 491 34,000  Level FlightAware ADS-B (KDAA)
Thu 01:08:52 AM 38.7820 -76.9090 232° Southwest 427 491 34,000  Level FlightAware ADS-B
Thu 01:08:59 AM 38.7707 -76.9277 233° Southwest 427 491 34,000  Level FlightAware ADS-B (KDAA)
Thu 01:09:31 AM 38.7331 -76.9897 233° Southwest 425 489 34,000  Level FlightAware ADS-B (KDAA)
Thu 01:09:52 AM 38.7073 -77.0324 232° Southwest 425 489 34,000  Level FlightAware ADS-B
Thu 01:09:58 AM 38.7004 -77.0436 233° Southwest 424 488 34,000  Level FlightAware ADS-B (KDAA)
Thu 01:10:28 AM 38.6651 -77.1014 233° Southwest 422 486 34,000  Level FlightAware ADS-B (KDAA)
Thu 01:10:47 AM 38.6508 -77.1248 232° Southwest 421 484 34,000  Level FlightAware ADS-B
Thu 01:11:00 AM 38.6258 -77.1657 232° Southwest 420 483 34,000  Level FlightAware ADS-B (KDAA)
Thu 01:11:36 AM 38.6508 -77.1248 232° Southwest 420 483 34,000  Level FlightAware ADS-B
Thu 01:11:51 AM 38.5600 -77.2635 228° Southwest 425 489 34,000  Level FlightAware ADS-B (KDAA)
Thu 01:12:20 AM 38.5226 -77.3163 229° Southwest 427 491 34,000  Level FlightAware ADS-B (KDAA)
Thu 01:12:50 AM 38.4828 -77.3729 228° Southwest 428 493 34,000  Level FlightAware ADS-B
Thu 01:13:22 AM 38.4416 -77.4313 229° Southwest 429 494 34,000  Level FlightAware ADS-B (KDAA)
Thu 01:14:52 AM 38.3226 -77.6027 234° Southwest 417 480 34,000  Level FlightAware ADS-B (KDAA)
Thu 01:15:32 AM 38.2873 -77.6683 236° Southwest 412 474 34,000  Level FlightAware ADS-B (KDAA)
Thu 01:15:48 AM 38.2635 -77.7129 236° Southwest 411 473 34,000  Level FlightAware ADS-B (KDAA)
Thu 01:16:27 AM 38.2384 -77.7597 236° Southwest 413 475 34,000  Level FlightAware ADS-B (KDAA)
Thu 01:17:00 AM 38.1949 -77.8403 236° Southwest 414 476 34,000  Level FlightAware ADS-B (KDAA)
Thu 01:17:11 AM 38.1726 -77.8811 235° Southwest 409 471 34,000  Level FlightAware ADS-B (KCHO)
Thu 01:17:23 AM 38.1609 -77.9027 236° Southwest 406 467 34,000  Level FlightAware ADS-B (KDAA)
Thu 01:17:51 AM 38.1310 -77.9577 236° Southwest 405 466 34,000  Level FlightAware ADS-B (KCHO)
Thu 01:18:00 AM 38.1209 -77.9762 236° Southwest 404 465 34,000  Level FlightAware ADS-B (KDAA)
Thu 01:18:27 AM 38.0923 -78.0290 236° Southwest 403 464 34,000  Level FlightAware ADS-B (KCHO)
Thu 01:19:11 AM 38.0456 -78.1148 235° Southwest 403 464 34,000  Level FlightAware ADS-B (KCHO)
Thu 01:19:51 AM 38.0036 -78.1915 235° Southwest 403 464 34,000  Level FlightAware ADS-B (KCHO)
Thu 01:20:23 AM 37.9713 -78.2505 235° Southwest 403 464 34,000  Level FlightAware ADS-B (KCHO)
Thu 01:21:24 AM 37.9042 -78.3729 235° Southwest 410 472 34,000  Level FlightAware ADS-B (KCHO)
Thu 01:22:03 AM 37.8609 -78.4514 235° Southwest 419 482 34,000  Level FlightAware ADS-B (KCHO)
Thu 01:22:08 AM 38.1177 -77.9821 236° Southwest 404 465 34,000  Level FlightAware ADS-B (KDAA)
Thu 01:22:39 AM 37.8214 -78.5226 235° Southwest 420 483 34,000  Level FlightAware ADS-B (KCHO)
Thu 01:23:12 AM 37.7855 -78.5875 235° Southwest 420 483 34,000  Level FlightAware ADS-B (KCHO)
Thu 01:23:44 AM 37.7492 -78.6530 235° Southwest 421 484 34,000  Level FlightAware ADS-B (KCHO)
Thu 01:24:21 AM 37.7121 -78.7198 235° Southwest 422 486 34,000  Level FlightAware ADS-B (KCHO)
Thu 01:25:39 AM 37.6308 -78.8647 235° Southwest 426 490 34,000  Level Washington Center
Thu 01:26:39 AM 37.5653 -78.9831 235° Southwest 425 489 34,000  Level Washington Center
Thu 01:27:39 AM 37.4986 -79.1019 235° Southwest 424 488 34,000  Level Washington Center
Thu 01:28:42 AM 37.4189 -79.2422 234° Southwest 416 479 34,000  Level Washington Center
Thu 01:29:40 AM 37.3517 -79.3606 234° Southwest 417 480 34,000  Level Washington Center
Thu 01:30:40 AM 37.2842 -79.4792 234° Southwest 418 481 34,000  Level Washington Center
Thu 01:31:40 AM 37.2169 -79.5983 235° Southwest 425 489 34,000  Level Washington Center
Thu 01:32:40 AM 37.1497 -79.7153 234° Southwest 420 483 34,000  Level Washington Center
Thu 01:33:40 AM 37.0831 -79.8325 235° Southwest 422 486 34,000  Level Washington Center
Thu 01:34:41 AM 37.0158 -79.9503 234° Southwest 426 490 34,000  Level Washington Center
Thu 01:35:41 AM 36.9486 -80.0661 234° Southwest 424 488 34,000  Level Washington Center
Thu 01:36:17 AM 36.9014 -80.1428 232° Southwest 443 510 34,000  Level Atlanta Center
Thu 01:37:16 AM 36.8322 -80.2600 234° Southwest 438 504 34,000  Level Atlanta Center
Thu 01:38:16 AM 36.7589 -80.3881 234° Southwest 433 498 34,000  Level Atlanta Center
Thu 01:39:16 AM 36.6872 -80.5053 233° Southwest 433 498 34,000  Level Atlanta Center
Thu 01:40:16 AM 36.6217 -80.6219 235° Southwest 428 493 34,000  Level Atlanta Center
Thu 01:41:16 AM 36.5519 -80.7411 234° Southwest 428 493 34,000  Level Atlanta Center
Thu 01:42:17 AM 36.4842 -80.8575 234° Southwest 428 493 34,000  Level Atlanta Center
Thu 01:43:16 AM 36.4164 -80.9739 234° Southwest 428 493 34,000  Level Atlanta Center
Thu 01:44:16 AM 36.3442 -81.0925 233° Southwest 428 493 34,000  Level Atlanta Center
Thu 01:45:16 AM 36.2761 -81.2108 235° Southwest 428 493 34,000  Level Atlanta Center
Thu 01:46:16 AM 36.2036 -81.3292 233° Southwest 434 499 34,000  Level Atlanta Center
Thu 01:47:16 AM 36.1331 -81.4472 234° Southwest 439 505 34,000  Level Atlanta Center
Thu 01:48:17 AM 36.0644 -81.5600 233° Southwest 439 505 34,000  Level Atlanta Center
Thu 01:49:16 AM 35.9958 -81.6775 234° Southwest 439 505 34,000  Level Atlanta Center
Thu 01:50:16 AM 35.9250 -81.7950 233° Southwest 439 505 34,000  Level Atlanta Center
Thu 01:51:16 AM 35.8522 -81.9122 233° Southwest 434 499 34,000  Level Atlanta Center
Thu 01:52:16 AM 35.7872 -82.0242 234° Southwest 434 499 34,000  Level Atlanta Center
Thu 01:56:01 AM 35.4790 -82.5125 233° Southwest 424 488 34,000  Level FlightAware ADS-B (KDZJ)
Thu 01:57:02 AM 35.4073 -82.6275 233° Southwest 424 488 34,000  Level FlightAware ADS-B (KDZJ)
Thu 01:58:07 AM 35.3297 -82.7517 233° Southwest 422 486 34,000  Level FlightAware ADS-B (KDZJ)
Thu 01:58:49 AM 35.2803 -82.8306 233° Southwest 422 486 34,000  Level FlightAware ADS-B (KDZJ)
Thu 01:59:36 AM 35.2244 -82.9194 233° Southwest 423 487 34,000  Level FlightAware ADS-B (KDZJ)
Thu 02:00:07 AM 35.1871 -82.9788 233° Southwest 424 488 34,000  Level FlightAware ADS-B (KDZJ)
Thu 02:00:53 AM 35.1321 -83.0657 232° Southwest 426 490 34,000  Level FlightAware ADS-B (KDZJ)
Thu 02:01:45 AM 35.0689 -83.1657 232° Southwest 428 493 34,000  Level FlightAware ADS-B (KDZJ)
Thu 02:02:31 AM 35.0139 -83.2526 232° Southwest 429 494 34,000  Level FlightAware ADS-B (KDZJ)
Thu 02:03:01 AM 34.9775 -83.3097 233° Southwest 425 489 34,000  Level FlightAware ADS-B (KDZJ)
Thu 02:03:39 AM 34.9305 -83.3833 233° Southwest 426 490 34,000  Level FlightAware ADS-B (KDZJ)
Thu 02:04:12 AM 34.8903 -83.4461 233° Southwest 426 490 34,000  Level FlightAware ADS-B (KDZJ)
Thu 02:05:00 AM 34.8318 -83.5376 233° Southwest 425 489 34,000  Level FlightAware ADS-B (KDZJ)
Thu 02:05:39 AM 34.7851 -83.6108 233° Southwest 424 488 34,000  Level FlightAware ADS-B (KDZJ)
Thu 02:06:20 AM 34.7343 -83.6898 233° Southwest 423 487 34,000  Level FlightAware ADS-B (KDZJ)
Thu 02:06:58 AM 34.6879 -83.7618 233° Southwest 423 487 34,000  Level FlightAware ADS-B (KDZJ)
Thu 02:07:40 AM 34.6370 -83.8407 233° Southwest 422 486 34,000  Level FlightAware ADS-B (KDZJ)
Thu 02:08:20 AM 34.5880 -83.9164 232° Southwest 425 489 34,000  Level FlightAware ADS-B (KDZJ)
Thu 02:09:00 AM 34.5399 -83.9906 233° Southwest 421 484 34,000  Level FlightAware ADS-B (KDZJ)
Thu 02:09:40 AM 34.4914 -84.0653 233° Southwest 420 483 34,000  Level FlightAware ADS-B (KDZJ)
Thu 02:10:21 AM 34.4420 -84.1414 233° Southwest 421 484 34,000  Level FlightAware ADS-B (KDZJ)
Thu 02:11:01 AM 34.3925 -84.2172 233° Southwest 421 484 34,000  Level FlightAware ADS-B (KDZJ)
Thu 02:11:41 AM 34.3446 -84.2906 233° Southwest 422 486 34,000  Level FlightAware ADS-B (KDZJ)
Thu 02:12:21 AM 34.2947 -84.3668 233° Southwest 421 484 34,000  Level FlightAware ADS-B (KDZJ)
Thu 02:13:01 AM 34.2463 -84.4404 233° Southwest 421 484 34,000  Level FlightAware ADS-B (KDZJ)
Thu 02:13:41 AM 34.1969 -84.5155 233° Southwest 422 486 34,000  Level FlightAware ADS-B (KDZJ)
Thu 02:14:42 AM 34.1219 -84.6292 232° Southwest 423 487 34,000  Level FlightAware ADS-B (KDZJ)
Thu 02:15:22 AM 34.0730 -84.7031 232° Southwest 422 486 34,000  Level FlightAware ADS-B (KDZJ)
Thu 02:16:03 AM 34.0229 -84.7788 232° Southwest 422 486 34,000  Level FlightAware ADS-B (KDZJ)
Thu 02:16:42 AM 33.9744 -84.8518 232° Southwest 422 486 34,000  Level FlightAware ADS-B (KDZJ)
Thu 02:17:21 AM 33.9264 -84.9240 232° Southwest 421 484 34,000  Level FlightAware ADS-B (KDZJ)
Thu 02:18:02 AM 33.8756 -85.0002 232° Southwest 421 484 34,000 209 Level FlightAware ADS-B (KDZJ)
Thu 02:19:16 AM 33.8339 -85.0692 232° Southwest 436 502 34,400 672 Climbing Atlanta Center
Thu 02:20:16 AM 33.7578 -85.1806 231° Southwest 436 502 35,500 800 Climbing Atlanta Center
Thu 02:21:16 AM 33.6856 -85.2919 232° Southwest 436 502 36,000 250 Climbing Atlanta Center
Thu 02:22:16 AM 33.6092 -85.4033 231° Southwest 436 502 36,000  Level Atlanta Center
Thu 02:23:16 AM 33.5369 -85.5117 231° Southwest 431 496 36,000  Level Atlanta Center
Thu 02:24:16 AM 33.4628 -85.6225 231° Southwest 431 496 36,000  Level Atlanta Center
Thu 02:25:16 AM 33.3817 -85.7406 231° Southwest 431 496 36,000  Level Atlanta Center
Thu 02:26:16 AM 33.3072 -85.8408 228° Southwest 425 489 36,000  Level Atlanta Center
Thu 02:27:16 AM 33.2325 -85.9536 232° Southwest 425 489 36,000  Level Atlanta Center
Thu 02:28:16 AM 33.1558 -86.0586 229° Southwest 432 497 36,000  Level Atlanta Center
Thu 02:29:16 AM 33.0828 -86.1708 232° Southwest 432 497 36,000  Level Atlanta Center
Thu 02:30:16 AM 33.0056 -86.2856 231° Southwest 441 507 36,000  Level Atlanta Center
Thu 02:31:16 AM 32.9328 -86.3900 230° Southwest 441 507 36,000  Level Atlanta Center
Thu 02:32:16 AM 32.8575 -86.4992 231° Southwest 435 501 36,000  Level Atlanta Center
Thu 02:33:16 AM 32.7803 -86.6058 229° Southwest 440 506 36,000  Level Atlanta Center
Thu 02:34:16 AM 32.7069 -86.7147 231° Southwest 440 506 36,000  Level Atlanta Center
Thu 02:35:16 AM 32.6336 -86.8211 231° Southwest 440 506 36,000  Level Atlanta Center
Thu 02:36:16 AM 32.5517 -86.9367 230° Southwest 440 506 36,000  Level Atlanta Center
Thu 02:37:16 AM 32.4761 -87.0425 230° Southwest 446 513 36,000  Level Atlanta Center
Thu 02:38:16 AM 32.3961 -87.1531 229° Southwest 446 513 36,000  Level Atlanta Center
Thu 02:39:16 AM 32.3181 -87.2633 230° Southwest 441 507 36,000  Level Atlanta Center
Thu 02:40:16 AM 32.2442 -87.3736 232° Southwest 441 507 36,000  Level Atlanta Center
Thu 02:41:16 AM 32.1661 -87.4811 229° Southwest 441 507 36,000  Level Atlanta Center
Thu 02:43:06 AM 32.0244 -87.6758 229° Southwest 435 501 36,000  Level Memphis Center
Thu 02:44:06 AM 31.9461 -87.7839 230° Southwest 435 501 36,000  Level Memphis Center
Thu 02:45:06 AM 31.8686 -87.8914 230° Southwest 435 501 36,000  Level Memphis Center
Thu 02:46:06 AM 31.7900 -87.9986 229° Southwest 435 501 36,000  Level Memphis Center
Thu 02:47:07 AM 31.7117 -88.1078 230° Southwest 435 501 36,000  Level Memphis Center
Thu 02:48:07 AM 31.6336 -88.2144 229° Southwest 435 501 36,000  Level Memphis Center
Thu 02:49:07 AM 31.5556 -88.3225 230° Southwest 435 501 36,000  Level Memphis Center
Thu 02:50:07 AM 31.4775 -88.4297 230° Southwest 435 501 36,000  Level Memphis Center
Thu 02:51:04 AM 31.3997 -88.5356 229° Southwest 436 502 36,000  Level Houston Center
Thu 02:52:04 AM 31.3219 -88.6403 229° Southwest 435 501 36,000  Level Houston Center
Thu 02:53:04 AM 31.2447 -88.7461 230° Southwest 434 499 36,000  Level Houston Center
Thu 02:54:04 AM 31.1672 -88.8503 229° Southwest 432 497 36,000 -50 Level Houston Center
Thu 02:55:04 AM 31.0919 -88.9511 229° Southwest 431 496 35,900 -50 Descending Houston Center
Thu 02:56:05 AM 31.0136 -89.0572 229° Southwest 431 496 35,900  Level Houston Center
Thu 02:57:05 AM 30.9336 -89.1636 229° Southwest 433 498 35,900  Level Houston Center
Thu 02:58:05 AM 30.8553 -89.2708 230° Southwest 434 499 35,900  Level Houston Center
Thu 02:59:05 AM 30.7756 -89.3781 229° Southwest 435 501 35,900  Level Houston Center
Thu 03:00:05 AM 30.6956 -89.4836 229° Southwest 435 501 35,900  Level Houston Center
Thu 03:01:05 AM 30.6158 -89.5906 229° Southwest 438 504 35,900  Level Houston Center
Thu 03:02:05 AM 30.5361 -89.6964 229° Southwest 438 504 35,900  Level Houston Center
Thu 03:03:06 AM 30.4581 -89.8017 229° Southwest 437 503 35,900  Level Houston Center
Thu 03:04:06 AM 30.3792 -89.9031 228° Southwest 438 504 35,900  Level Houston Center
Thu 03:05:06 AM 30.2831 -90.0275 228° Southwest 440 506 35,900 15 Level Houston Center
Thu 03:10:52 AM 29.8250 -90.6225 229° Southwest 426 490 36,000 16 Climbing FlightAware ADS-B (KHOU)
Thu 03:11:21 AM 29.7890 -90.6690 229° Southwest 425 489 36,000  Level FlightAware ADS-B (KHOU)
Thu 03:13:26 AM 29.6206 -90.8838 227° Southwest 429 494 36,000  Level FlightAware ADS-B (KHOU)
Thu 03:13:41 AM 29.6093 -90.8976 227° Southwest 430 495 36,000  Level FlightAware ADS-B (KHOU)
Thu 03:14:27 AM 29.5381 -90.9842 227° Southwest 430 495 36,000  Level FlightAware ADS-B (KHOU)
Thu 03:14:35 AM 29.5340 -90.9892 227° Southwest 430 495 36,000  Level FlightAware ADS-B (KHOU)
Thu 03:15:57 AM 29.4142 -91.1364 228° Southwest 430 495 36,000  Level FlightAware ADS-B (KHOU)
Thu 03:16:25 AM 29.3758 -91.1833 227° Southwest 430 495 36,000  Level FlightAware ADS-B (KHOU)
Thu 03:16:50 AM 29.3440 -91.2221 227° Southwest 430 495 36,000  Level FlightAware ADS-B (KHOU)
Thu 03:17:26 AM 29.3070 -91.2672 227° Southwest 429 494 36,000  Level FlightAware ADS-B (KHOU)
Thu 03:17:56 AM 29.2562 -91.3291 227° Southwest 428 493 36,000  Level FlightAware ADS-B (KHOU)
Thu 03:18:27 AM 29.2116 -91.3832 227° Southwest 427 491 36,000  Level FlightAware ADS-B (KHOU)
Thu 03:18:56 AM 29.1701 -91.4337 227° Southwest 426 490 36,000  Level FlightAware ADS-B (KHOU)
Thu 03:19:27 AM 29.1367 -91.4741 227° Southwest 425 489 36,000  Level FlightAware ADS-B (KHOU)
Thu 03:19:57 AM 29.1102 -91.5063 227° Southwest 424 488 36,000  Level FlightAware ADS-B (KHOU)
Thu 03:20:26 AM 29.0570 -91.5707 227° Southwest 423 487 36,000  Level FlightAware ADS-B (KHOU)
Thu 03:20:57 AM 29.0092 -91.6287 227° Southwest 422 486 36,000  Level FlightAware ADS-B (KHOU)
Thu 03:21:27 AM 28.9684 -91.6779 227° Southwest 422 486 36,000  Level FlightAware ADS-B (KHOU)
Thu 03:21:57 AM 28.9272 -91.7275 227° Southwest 420 483 36,000  Level FlightAware ADS-B (KHOU)
Thu 03:22:03 AM 28.9215 -91.7344 227° Southwest 420 483 36,000  Level FlightAware ADS-B (KHOU)
Thu 03:22:57 AM 28.8482 -91.8225 227° Southwest 419 482 36,000  Level FlightAware ADS-B (KHOU)
Thu 03:23:27 AM 28.8090 -91.8697 227° Southwest 418 481 36,000  Level FlightAware ADS-B (KHOU)
Thu 03:23:57 AM 28.7677 -91.9193 227° Southwest 418 481 36,000  Level FlightAware ADS-B (KHOU)
Thu 03:24:27 AM 28.7293 -91.9653 227° Southwest 418 481 36,000  Level FlightAware ADS-B (KHOU)
Thu 03:24:57 AM 28.6901 -92.0122 227° Southwest 418 481 36,000  Level FlightAware ADS-B (KHOU)
Thu 03:25:26 AM 28.6486 -92.0618 227° Southwest 416 479 36,000  Level FlightAware ADS-B (KHOU)
Thu 03:25:57 AM 28.6085 -92.1096 227° Southwest 415 478 36,000  Level FlightAware ADS-B (KHOU)
Thu 03:26:20 AM 28.5816 -92.1418 227° Southwest 415 478 36,000  Level FlightAware ADS-B (KHOU)
Thu 03:26:57 AM 28.5295 -92.2038 227° Southwest 415 478 36,000  Level FlightAware ADS-B (KHOU)
Thu 03:27:27 AM 28.4883 -92.2530 227° Southwest 413 475 36,000  Level FlightAware ADS-B (KHOU)
Thu 03:27:57 AM 28.4483 -92.3005 227° Southwest 413 475 36,000  Level FlightAware ADS-B (KHOU)
Thu 03:28:17 AM 28.4244 -92.3289 227° Southwest 413 475 36,000  Level FlightAware ADS-B (KHOU)
Thu 03:33:57 AM 27.9348 -92.8249 212° Southwest 419 482 36,000  Level FlightAware ADS-B (KHOU)
Thu 03:34:27 AM 27.8855 -92.8590 212° Southwest 418 481 36,000  Level FlightAware ADS-B (KHOU)
Thu 03:34:57 AM 27.8378 -92.8921 212° Southwest 417 480 36,000  Level FlightAware ADS-B (KHOU)
Thu 03:35:28 AM 27.7862 -92.9277 212° Southwest 417 480 36,000  Level FlightAware ADS-B (KHOU)
Thu 03:35:57 AM 27.7356 -92.9627 212° Southwest 417 480 36,000  Level FlightAware ADS-B (KHOU)
Thu 03:36:27 AM 27.6872 -92.9960 212° Southwest 418 481 36,000  Level FlightAware ADS-B (KHOU)
Thu 03:36:57 AM 27.6376 -93.0302 212° Southwest 418 481 36,000  Level FlightAware ADS-B (KHOU)
Thu 03:37:28 AM 27.5866 -93.0652 212° Southwest 419 482 36,000  Level FlightAware ADS-B (KHOU)
Thu 03:37:57 AM 27.5448 -93.0940 212° Southwest 419 482 36,000  Level FlightAware ADS-B (KHOU)
Thu 03:38:24 AM 27.4999 -93.1247 212° Southwest 420 483 36,000  Level FlightAware ADS-B (KHOU)
Thu 03:38:57 AM 27.4406 -93.1654 212° Southwest 422 486 36,000  Level FlightAware ADS-B (KHOU)
Thu 03:40:09 AM 27.3172 -93.2498 212° Southwest 424 488 36,000  Level FlightAware ADS-B (KHOU)
Thu 03:40:39 AM 27.2743 -93.2791 212° Southwest 424 488 36,000  Level FlightAware ADS-B (KHOU)
Thu 03:41:59 AM 27.1341 -93.3748 212° Southwest 424 488 36,000  Level FlightAware ADS-B (KHOU)
Thu 03:42:11 AM 27.1119 -93.3899 212° Southwest 424 488 36,000  Level FlightAware ADS-B (KHOU)
Thu 03:44:02 AM 26.9261 -93.5160 212° Southwest 423 487 36,000  Level FlightAware ADS-B (KHOU)
Thu 03:44:32 AM 26.8763 -93.5496 212° Southwest 423 487 36,000  Level FlightAware ADS-B (KHOU)
Thu 03:45:01 AM 26.8302 -93.5808 212° Southwest 422 486 36,000  Level FlightAware ADS-B (KHOU)
Thu 03:45:23 AM 26.7900 -93.6079 212° Southwest 422 486 36,000  Level FlightAware ADS-B (KHOU)
Thu 03:46:02 AM 26.7261 -93.6510 212° Southwest 422 486 36,000  Level FlightAware ADS-B (KHOU)
Thu 03:46:13 AM 26.7057 -93.6648 212° Southwest 421 484 36,000  Level FlightAware ADS-B (KHOU)
Thu 03:47:56 AM 26.5364 -93.7788 212° Southwest 420 483 36,000  Level FlightAware ADS-B (KHOU)
Thu 03:49:57 AM 26.3331 -93.9156 212° Southwest 418 481 36,000  Level FlightAware ADS-B (KHOU)
Thu 03:50:27 AM 26.3019 -93.9365 212° Southwest 418 481 36,000  Level FlightAware ADS-B (KHOU)
Thu 03:51:27 AM 26.1835 -94.0159 212° Southwest 420 483 36,000  Level FlightAware ADS-B (KHOU)
Thu 03:51:54 AM 26.1438 -94.0424 212° Southwest 420 483 36,000  Level FlightAware ADS-B (KHOU)
Thu 03:52:27 AM 26.0849 -94.0818 212° Southwest 421 484 36,000  Level FlightAware ADS-B (KHOU)
Thu 03:52:29 AM 26.0802 -94.0850 212° Southwest 421 484 36,000  Level FlightAware ADS-B (KHOU)
Thu 03:53:23 AM 25.9911 -94.1444 212° Southwest 421 484 36,000  Level FlightAware ADS-B (KHOU)
Thu 03:54:02 AM 25.9246 -94.1886 212° Southwest 421 484 36,000  Level FlightAware ADS-B (KHOU)
Thu 03:54:32 AM 25.8769 -94.2203 212° Southwest 422 486 36,000  Level FlightAware ADS-B (KHOU)
Thu 03:54:39 AM 25.8648 -94.2284 212° Southwest 422 486 36,000  Level FlightAware ADS-B (KHOU)
Thu 03:55:32 AM 25.7740 -94.2888 212° Southwest 419 482 36,000  Level FlightAware ADS-B (KHOU)
Thu 03:56:02 AM 25.7261 -94.3206 212° Southwest 418 481 36,000  Level FlightAware ADS-B (KHOU)
Thu 03:56:32 AM 25.6737 -94.3554 212° Southwest 418 481 36,000  Level FlightAware ADS-B (KHOU)
Thu 03:57:02 AM 25.6292 -94.3849 211° Southwest 417 480 36,000  Level FlightAware ADS-B (KHOU)
Thu 03:57:32 AM 25.5750 -94.4206 211° Southwest 417 480 36,000  Level FlightAware ADS-B (KHOU)
Thu 03:57:44 AM 25.5687 -94.4249 211° Southwest 417 480 36,000  Level FlightAware ADS-B (KHOU)
Thu 04:39:13 AM 21.6882 -97.4833 226° Southwest 410 472 36,000  Level FlightAware ADS-B
Thu 04:40:17 AM 21.6040 -97.5770 226° Southwest 409 471 36,000  Level FlightAware ADS-B
Thu 04:41:08 AM 21.5399 -97.6483 226° Southwest 410 472 36,000  Level FlightAware ADS-B
Thu 04:41:57 AM 21.4731 -97.7225 226° Southwest 410 472 36,000  Level FlightAware ADS-B
Thu 04:42:37 AM 21.4197 -97.7818 226° Southwest 409 471 36,000  Level FlightAware ADS-B
Thu 04:43:17 AM 21.3682 -97.8390 226° Southwest 411 473 36,000  Level FlightAware ADS-B
Thu 04:43:58 AM 21.3134 -97.8995 226° Southwest 412 474 36,000  Level FlightAware ADS-B
Thu 04:44:38 AM 21.2599 -97.9585 226° Southwest 412 474 36,000  Level FlightAware ADS-B
Thu 04:45:17 AM 21.2105 -98.0129 226° Southwest 411 473 36,000  Level FlightAware ADS-B
Thu 04:46:09 AM 21.1444 -98.0857 226° Southwest 412 474 36,000  Level FlightAware ADS-B
Thu 04:46:58 AM 21.0736 -98.1637 226° Southwest 412 474 36,000  Level FlightAware ADS-B
Thu 04:47:38 AM 21.0211 -98.2216 226° Southwest 412 474 36,000  Level FlightAware ADS-B
Thu 04:49:18 AM 20.8897 -98.3658 226° Southwest 410 472 36,000  Level FlightAware ADS-B
Thu 04:49:48 AM 20.8484 -98.4110 226° Southwest 410 472 36,000  Level FlightAware ADS-B
Thu 04:50:37 AM 20.7841 -98.4813 226° Southwest 389 448 36,000 -400 Level FlightAware ADS-B
Thu 04:51:18 AM 20.7368 -98.5330 226° Southwest 385 443 35,400 -2,593 Descending FlightAware ADS-B
Thu 04:51:58 AM 20.6819 -98.5924 222° Southwest 420 483 32,500 -4,025 Descending FlightAware ADS-B
Thu 04:52:37 AM 20.6135 -98.6360 204° Southwest 448 516 30,100 -3,450 Descending FlightAware ADS-B
Thu 04:53:18 AM 20.5354 -98.6721 203° Southwest 453 521 27,900 -2,074 Descending FlightAware ADS-B
Thu 04:53:58 AM 20.4615 -98.7050 203° Southwest 420 483 27,300 -900 Descending FlightAware ADS-B
Thu 04:54:38 AM 20.3922 -98.7360 203° Southwest 390 449 26,700 -987 Descending FlightAware ADS-B
Thu 04:55:17 AM 20.3296 -98.7643 203° Southwest 368 423 26,000 -1,050 Descending FlightAware ADS-B
Thu 04:55:58 AM 20.2670 -98.7929 203° Southwest 348 400 25,300 -1,050 Descending FlightAware ADS-B
Thu 04:56:37 AM 20.2108 -98.8184 204° Southwest 331 381 24,600 -1,200 Descending FlightAware ADS-B
Thu 04:57:18 AM 20.1530 -98.8448 203° Southwest 325 374 23,700 -1,481 Descending FlightAware ADS-B
Thu 04:57:58 AM 20.1004 -98.8684 203° Southwest 322 371 22,600 -1,500 Descending FlightAware ADS-B
Thu 04:58:38 AM 20.0432 -98.8943 204° Southwest 318 366 21,700 -1,425 Descending FlightAware ADS-B
Thu 04:59:18 AM 19.9912 -98.9180 203° Southwest 314 361 20,700 -1,519 Descending FlightAware ADS-B
Thu 04:59:57 AM 19.9371 -98.9422 203° Southwest 309 356 19,700 -1,600 Descending FlightAware ADS-B
Thu 05:00:33 AM 19.8897 -98.9636 204° Southwest 313 360 18,700 -1,756 Descending FlightAware ADS-B
Thu 05:00:38 AM 19.8830 -98.9666 203° Southwest 313 360 18,500 -1,867 Descending FlightAware ADS-B
Thu 05:01:18 AM 19.8301 -98.9905 203° Southwest 318 366 17,300 -1,696 Descending FlightAware ADS-B
Thu 05:01:24 AM 19.8218 -98.9943 204° Southwest 317 365 17,200 -1,500 Descending FlightAware ADS-B
Thu 05:01:58 AM 19.7760 -99.0148 203° Southwest 316 364 16,300 -1,541 Descending FlightAware ADS-B
Thu 05:02:38 AM 19.7268 -99.0466 225° Southwest 308 354 15,300 -1,500 Descending FlightAware ADS-B
Thu 05:02:46 AM 19.7180 -99.0559 226° Southwest 306 352 15,100 -1,350 Descending FlightAware ADS-B
Thu 05:03:18 AM 19.6868 -99.0889 225° Southwest 299 344 14,400 -1,227 Descending FlightAware ADS-B
Thu 05:03:30 AM 19.6755 -99.1010 226° Southwest 296 341 14,200 -1,231 Descending FlightAware ADS-B
Thu 05:03:57 AM 19.6497 -99.1285 225° Southwest 291 335 13,600 -1,200 Descending FlightAware ADS-B
Thu 05:04:00 AM 19.6459 -99.1326 226° Southwest 290 334 13,600 -1,091 Level FlightAware ADS-B
Thu 05:04:30 AM 19.6188 -99.1614 226° Southwest 275 316 13,000 -1,263 Descending FlightAware ADS-B
Thu 05:04:38 AM 19.6122 -99.1685 225° Southwest 270 311 12,800 -1,241 Descending FlightAware ADS-B
Thu 05:04:59 AM 19.5933 -99.1886 225° Southwest 255 293 12,400 -1,050 Descending FlightAware ADS-B
Thu 05:05:18 AM 19.5777 -99.2049 225° Southwest 243 280 12,100 -968 Descending FlightAware ADS-B
Thu 05:05:30 AM 19.5687 -99.2144 225° Southwest 235 270 11,900 -900 Descending FlightAware ADS-B
Thu 05:05:58 AM 19.5424 -99.2262 176° South 230 265 11,500 -977 Descending FlightAware ADS-B
Thu 05:06:13 AM 19.5266 -99.2224 163° South 231 266 11,200 -1,200 Descending FlightAware ADS-B
Thu 05:06:18 AM 19.5212 -99.2206 163° South 231 266 11,100 -1,000 Descending FlightAware ADS-B
Thu 05:06:43 AM 19.4968 -99.2128 164° South 222 255 10,700 -900 Descending FlightAware ADS-B
Thu 05:06:58 AM 19.4820 -99.2085 165° South 214 246 10,500 -783 Descending FlightAware ADS-B
Thu 05:07:06 AM 19.4739 -99.2063 165° South 206 237 10,400 -750 Descending FlightAware ADS-B
Thu 05:07:38 AM 19.4453 -99.1989 167° South 198 228 10,000 -882 Descending FlightAware ADS-B
Thu 05:07:40 AM 19.4440 -99.1985 166° South 198 228 9,900 -900 Descending FlightAware ADS-B
Thu 05:07:58 AM 19.4269 -99.1943 166° South 200 230 9,700 -789 Descending FlightAware ADS-B
Thu 05:08:18 AM 19.4097 -99.1899 166° South 196 226 9,400 -1,000 Descending FlightAware ADS-B
Thu 05:08:28 AM 19.4006 -99.1863 154° Southeast 193 222 9,200 -1,263 Descending FlightAware ADS-B
Thu 05:08:37 AM 19.3946 -99.1805 130° Southeast 190 219 9,000 -1,500 Descending FlightAware ADS-B
Thu 05:08:44 AM 19.3914 -99.1750 119° Southeast 188 216 8,800 -857 Descending FlightAware ADS-B
Thu 05:08:58 AM 19.3885 -99.1635 93° East 178 205 8,700 -571 Descending FlightAware ADS-B
Thu 05:09:05 AM 19.3894 -99.1574 75° East 179 206 8,600 -900 Descending FlightAware ADS-B
Thu 05:09:18 AM 19.3942 -99.1472 59° Northeast 183 211 8,400 -1,091 Descending FlightAware ADS-B
Thu 05:09:38 AM 19.4029 -99.1342 58° Northeast 182 209 8,000 -1,050 Descending FlightAware ADS-B
Thu 05:09:58 AM 19.4128 -99.1169 60° Northeast 183 211 7,700 -1,050 Descending FlightAware ADS-B
Thu 05:10:18 AM 19.4197 -99.1045 58° Northeast 179 206 7,300 -1,091 Descending FlightAware ADS-B
Thu 05:10:31 AM 19.4268 -99.0920 60° Northeast 174 200 7,100 -947 Descending FlightAware ADS-B
Thu 05:10:37 AM 19.4282 -99.0894 60° Northeast 174 200 7,000 -429 Descending FlightAware ADS-B
Thu 05:10:45 AM 19.4304 -99.0855 59° Northeast 172 198 7,000  Level FlightAware ADS-B

Login

Don't have an account? Register now (free) for customized features, flight alerts, and more!